createdAt,value
2022-10-24T00:01:19.901Z,16.32244823208348
2022-10-24T00:04:16.409Z,16.29354384325061
2022-10-24T00:07:16.284Z,16.29482848255875
2022-10-24T00:11:20.676Z,16.260785547038903
2022-10-24T00:14:16.592Z,16.208115370084123
2022-10-24T00:17:18.262Z,16.194626671147944
2022-10-24T00:21:15.571Z,16.199122903903845
2022-10-24T00:24:18.996Z,16.109198291122812
2022-10-24T00:27:15.927Z,16.036616347239125
2022-10-24T00:31:18.728Z,16.0873594700417
2022-10-24T00:34:17.536Z,16.041754890028916
2022-10-24T00:37:17.149Z,16.012208272962106
2022-10-24T00:41:19.142Z,15.991654110243053
2022-10-24T00:44:21.772Z,15.974953856462616
2022-10-24T00:47:20.888Z,15.920356894402357
2022-10-24T00:51:22.973Z,15.898518118777792
2022-10-24T00:54:16.257Z,15.872825448302683
2022-10-24T00:57:23.894Z,15.859979115793612
2022-10-24T01:01:16.913Z,15.865759965197594
2022-10-24T01:04:17.869Z,15.76620094358368
2022-10-24T01:07:33.041Z,15.782901158937966
2022-10-24T01:11:32.259Z,15.745646836598462
2022-10-24T01:14:27.394Z,15.704538636597864
2022-10-24T01:17:22.198Z,15.639664796363741
2022-10-24T01:21:42.790Z,15.66407277041444
2022-10-24T01:24:53.329Z,15.597914329657579
2022-10-24T01:27:52.931Z,15.570937115234846
2022-10-24T01:31:26.506Z,15.574148687959768
2022-10-24T01:41:20.896Z,15.439905045001069
2022-10-24T01:44:21.953Z,15.430912654963686
2022-10-24T01:47:21.233Z,15.40714705701257
2022-10-24T01:51:20.029Z,15.422562579298482
2022-10-24T01:54:16.808Z,15.362827445031144
2022-10-24T01:57:16.232Z,15.378885272958087
2022-10-24T02:01:38.310Z,15.416781758134311
2022-10-24T02:04:40.259Z,15.368608262757425
2022-10-24T02:07:38.566Z,15.329427172047144
2022-10-24T02:11:34.231Z,15.388519971078495
2022-10-24T02:14:35.107Z,15.342915742348941
2022-10-24T02:31:23.953Z,15.14444126739545
2022-10-24T02:34:18.118Z,15.089844805125267
2022-10-24T02:37:18.144Z,15.124529612643618
2022-10-24T02:41:21.394Z,15.102691028585923
2022-10-24T02:44:18.751Z,15.064794674608857
2022-10-24T02:47:20.233Z,15.07507165039424
2022-10-24T02:51:19.827Z,15.073787028357401
2022-10-24T02:54:17.276Z,15.014052123732927
2022-10-24T02:57:17.171Z,15.01276750256011
2022-10-24T03:01:19.171Z,15.072502406338753
2022-10-24T03:04:19.266Z,15.043598415728137
2022-10-24T03:07:19.269Z,15.002490533832406
2022-10-24T03:11:16.066Z,14.952390327955891
2022-10-24T03:14:16.267Z,14.931194095336831
2022-10-24T03:17:17.349Z,14.960098050136093
2022-10-24T03:21:22.301Z,15.043598415728137
2022-10-24T03:24:31.231Z,15.025613715106829
2022-10-24T03:27:22.739Z,14.9594557399294
2022-10-24T03:41:16.557Z,14.985790462132808
2022-10-24T03:44:16.120Z,14.906786318455488
2022-10-24T03:47:16.350Z,14.887517025556008
2022-10-24T03:51:16.797Z,14.93569026547857
2022-10-24T03:54:17.365Z,14.872743903771426
2022-10-24T03:57:16.668Z,14.887517025556008
2022-10-24T04:01:18.333Z,14.892013193533149
2022-10-24T04:04:16.648Z,14.813651440689227
2022-10-24T04:07:16.682Z,14.872101594183187
2022-10-24T04:11:16.759Z,14.874670832563424
2022-10-24T04:14:16.325Z,14.854759237019698
2022-10-24T04:17:16.615Z,14.825213006524518
2022-10-24T04:21:20.821Z,14.814293749863646
2022-10-24T04:24:16.744Z,14.724370509692017
2022-10-24T04:27:16.722Z,14.726939743888579
2022-10-24T04:31:23.423Z,14.763551339095375
2022-10-24T04:34:17.028Z,14.77447058964899
2022-10-24T04:37:16.659Z,14.754559016096845
2022-10-24T04:41:17.157Z,14.75070516365604
2022-10-24T04:44:16.918Z,14.663993527018466
2022-10-24T04:47:17.015Z,14.681335847715763
2022-10-24T04:51:20.025Z,14.69546662999428
2022-10-24T04:54:17.367Z,14.707670489187876
2022-10-24T04:57:16.237Z,14.628666587704448
2022-10-24T05:01:16.174Z,14.66848968391796
2022-10-24T05:04:16.490Z,14.653074289761662
2022-10-24T05:07:16.593Z,14.644724285687335
2022-10-24T05:11:16.473Z,14.674270457401871
2022-10-24T05:14:17.065Z,14.677481998385428
2022-10-24T05:17:17.088Z,14.661424294604512
2022-10-24T05:21:16.024Z,14.629951203438486
2022-10-24T05:24:16.541Z,14.624170432778556
2022-10-24T05:31:17.131Z,14.562508901991896
2022-10-24T05:34:16.259Z,14.558655057709256
2022-10-24T05:37:16.793Z,14.54195506770957
2022-10-24T05:41:16.037Z,14.542597374960405
2022-10-24T05:44:17.263Z,14.500205106159502
2022-10-24T05:47:16.579Z,14.529751230807687
2022-10-24T05:51:16.352Z,14.509839710965753
2022-10-24T05:54:16.738Z,14.490570502376432
2022-10-24T05:57:16.800Z,14.481578206435369
2022-10-24T06:01:17.891Z,14.507912789922647
2022-10-24T06:04:18.129Z,14.459739777146387
2022-10-24T06:07:18.190Z,14.490570502376432
2022-10-24T06:11:36.532Z,14.530393537972122
2022-10-24T06:14:38.265Z,14.472585911385613
2022-10-24T06:17:37.708Z,14.462951310535663
2022-10-24T06:21:17.076Z,14.480935899616544
2022-10-24T06:24:16.717Z,14.447535951303962
2022-10-24T06:27:16.587Z,14.416062934339061
2022-10-24T06:31:16.832Z,14.457170550516821
2022-10-24T06:34:16.398Z,14.428266755947789
2022-10-24T06:37:16.355Z,14.466805150752862
2022-10-24T06:41:17.077Z,14.518832009708058
2022-10-24T06:44:16.230Z,14.493782036857102
2022-10-24T06:47:31.845Z,14.50534356192884
2022-10-24T06:51:16.473Z,14.5291089236478
2022-10-24T06:54:16.678Z,14.522685852299038
2022-10-24T06:57:18.073Z,14.594624277380353
2022-10-24T07:01:19.449Z,14.656928138055173
2022-10-24T07:04:17.017Z,14.717305116026637
2022-10-24T07:07:19.714Z,14.746851311378942
2022-10-24T07:11:16.947Z,14.818789914211902
2022-10-24T07:14:16.758Z,14.883020857801693
2022-10-24T07:17:18.257Z,14.996067428968763
2022-10-24T07:21:19.106Z,15.087917871763057
2022-10-24T07:24:16.355Z,15.17270297841751
2022-10-24T07:27:16.385Z,15.2645536000412
2022-10-24T07:31:21.566Z,15.420635638869499
2022-10-24T07:34:17.781Z,15.51184419738711
2022-10-24T07:37:18.775Z,15.622964607375707
2022-10-24T07:41:16.701Z,15.750785362908209
2022-10-24T07:44:17.417Z,15.840709620440611
2022-10-24T07:47:16.755Z,15.946691895529602
2022-10-24T07:51:16.497Z,16.051389658544213
2022-10-24T07:54:16.456Z,16.150948993115254
2022-10-24T07:57:16.459Z,16.290332245059837
2022-10-24T08:01:18.402Z,16.42008090244817
2022-10-24T08:04:16.314Z,16.540194923943726
2022-10-24T08:07:16.603Z,16.66287839348079
2022-10-24T08:11:18.645Z,16.77913879781272
2022-10-24T08:14:23.298Z,16.89283005551879
2022-10-24T08:17:17.161Z,17.006521455692656
2022-10-24T08:21:18.643Z,17.14397904502557
2022-10-24T08:24:16.984Z,17.296210356618758
2022-10-24T08:27:17.062Z,17.41182924495115
2022-10-24T08:31:40.537Z,17.57048429263823
2022-10-24T08:34:16.980Z,17.675183929502964
2022-10-24T08:37:16.133Z,17.794014952082307
2022-10-24T08:41:24.256Z,17.94753201706917
2022-10-24T08:44:24.366Z,18.104903336570807
2022-10-24T08:47:25.467Z,18.22951592198451
2022-10-24T08:51:28.215Z,18.40615776672821
2022-10-24T08:54:20.173Z,18.54682915452877
2022-10-24T08:57:21.770Z,18.67401169287632
2022-10-24T09:01:27.420Z,18.84230401259929
2022-10-24T09:04:21.056Z,18.952786163216025
2022-10-24T09:07:20.534Z,19.10437817020511
2022-10-24T09:11:25.373Z,19.360029670982566
2022-10-24T09:14:19.243Z,19.50584127667571
2022-10-24T09:21:16.772Z,19.92850355468836
2022-10-24T09:24:28.488Z,20.085878310170028
2022-10-24T09:31:18.233Z,20.547726617526497
2022-10-24T09:34:17.305Z,20.744928210428135
2022-10-24T09:37:43.936Z,20.96846669068991
2022-10-24T09:41:21.372Z,21.1393326820159
2022-10-24T09:44:31.188Z,21.365441556134556
2022-10-24T09:47:26.878Z,21.588339207974787
2022-10-24T09:51:21.600Z,21.8504212972839
2022-10-24T09:54:27.423Z,22.049552802602193
2022-10-24T09:57:16.926Z,22.266670877371507
2022-10-24T10:01:20.210Z,22.4401087659764
2022-10-24T10:04:18.582Z,22.586567685634144
2022-10-24T10:07:24.697Z,22.71439825169955
2022-10-24T10:11:37.713Z,22.88590989711229
2022-10-24T10:14:25.023Z,22.99639697146049
2022-10-24T10:17:22.897Z,23.1351483716644
2022-10-24T10:21:18.029Z,23.33942165251683
2022-10-24T10:24:24.359Z,23.450551649389034
2022-10-24T10:27:31.483Z,23.635554489414154
2022-10-24T10:31:24.986Z,23.75953229814768
2022-10-24T10:34:22.468Z,23.83147804720793
2022-10-24T10:37:25.577Z,23.918198445553664
2022-10-24T10:41:31.713Z,24.073652996697
2022-10-24T10:44:34.087Z,24.155234623892465
2022-10-24T10:47:31.872Z,24.254160474948367
2022-10-24T10:51:24.640Z,24.447515858866335
2022-10-24T10:54:34.875Z,24.615818887234582
2022-10-24T10:57:21.104Z,24.71089096489386
2022-10-24T11:01:25.245Z,24.769347494527757
2022-10-24T11:04:27.098Z,24.90938636703395
2022-10-24T11:07:24.143Z,24.975551597568938
2022-10-24T11:11:19.185Z,25.02373019384686
2022-10-24T11:14:28.822Z,25.033365916171988
2022-10-24T11:17:20.900Z,25.12972319569826
2022-10-24T11:21:20.572Z,25.103385529133085
2022-10-24T11:24:21.099Z,25.157988017101253
2022-10-24T11:27:19.429Z,25.29096127229277
2022-10-24T11:31:20.448Z,25.453484404366556
2022-10-24T11:34:51.658Z,25.57104084337043
2022-10-24T11:37:23.605Z,25.73934595556384
2022-10-24T11:41:27.621Z,25.888379750613602
2022-10-24T11:44:29.599Z,26.15497098588903
2022-10-24T11:47:40.194Z,26.339336948865093
2022-10-24T11:51:21.053Z,26.534623952303082
2022-10-24T11:54:53.521Z,26.6932949520452
2022-10-24T11:57:22.479Z,26.854535806845888
2022-10-24T12:01:46.446Z,27.006141015314277
2022-10-24T12:04:32.045Z,27.150680115163503
2022-10-24T12:07:49.429Z,27.24832443735586
2022-10-24T12:11:35.349Z,27.318988157103103
2022-10-24T12:14:42.249Z,27.471878939058023
2022-10-24T12:17:31.862Z,27.60678278410787
2022-10-24T12:21:24.816Z,27.60614038437052
2022-10-24T12:24:26.605Z,27.70571239793435
2022-10-24T12:27:27.275Z,27.77059486556245
2022-10-24T12:31:26.206Z,27.79693330625314
2022-10-24T12:41:40.024Z,28.010210717318934
2022-10-24T12:44:49.956Z,28.010853119916646
2022-10-24T12:47:34.698Z,28.046185269794023
2022-10-24T12:51:33.327Z,27.942116067749975
2022-10-24T12:54:36.815Z,27.983872214728034
2022-10-24T12:57:28.024Z,27.951752099962686
2022-10-24T13:01:27.600Z,27.943400871985887
2022-10-24T13:04:32.532Z,27.906141556529565
2022-10-24T13:07:40.330Z,27.82712616230274
2022-10-24T13:11:32.217Z,27.763528455946016
2022-10-24T13:14:50.060Z,27.760316451756808
2022-10-24T13:17:31.492Z,27.674877182056026
2022-10-24T13:21:25.762Z,27.647253976728827
2022-10-24T13:24:34.472Z,27.575947601844472
2022-10-24T13:27:28.699Z,27.581086798160776
2022-10-24T13:31:53.813Z,27.620273179642755
2022-10-24T13:34:24.649Z,27.615133981107284
2022-10-24T13:37:23.599Z,27.488581308996164
2022-10-24T13:41:26.104Z,27.44682538991474
2022-10-24T13:44:25.916Z,27.370379987843716
2022-10-24T13:47:21.871Z,27.26374197151681
2022-10-24T13:51:19.945Z,27.220701361868123
2022-10-24T13:54:20.750Z,27.166097632735273
2022-10-24T13:57:29.188Z,27.177660772633043
2022-10-24T14:01:20.119Z,27.112778728934064
2022-10-24T14:04:17.399Z,27.081943714527007
2022-10-24T14:07:22.140Z,27.069738190885346
2022-10-24T14:11:21.226Z,26.967597294235382
2022-10-24T14:14:26.518Z,26.974663641874304
2022-10-24T14:17:23.208Z,26.941901489277733
2022-10-24T14:21:19.385Z,26.90271540072581
2022-10-24T14:24:19.944Z,26.891152295861776
2022-10-24T14:27:18.649Z,26.8654565125501
2022-10-24T14:31:21.433Z,26.738262492304877
2022-10-24T14:34:20.972Z,26.709354785294273
2022-10-24T14:37:23.963Z,26.718348293155213
2022-10-24T14:41:17.808Z,26.62712846903596
2022-10-24T14:44:17.813Z,26.535908736611965
2022-10-24T14:47:22.310Z,26.511497837853675
2022-10-24T14:51:23.517Z,26.419635830324932
2022-10-24T14:54:20.975Z,26.328416306475354
2022-10-24T14:57:21.265Z,26.296939168117024
2022-10-24T15:01:18.320Z,26.15175903863419
2022-10-24T15:04:28.134Z,26.135056914741654
2022-10-24T15:07:28.717Z,26.124136296935557
2022-10-24T15:11:19.764Z,25.945552262810907
2022-10-24T15:14:37.813Z,25.909578543069166
2022-10-24T15:17:29.949Z,25.880028712521106
2022-10-24T15:21:19.232Z,25.762471873234972
2022-10-24T15:24:21.632Z,25.716220043786233
2022-10-24T15:27:26.386Z,25.62564361273626
2022-10-24T15:31:18.836Z,25.549199744823635
2022-10-24T15:34:18.454Z,25.46440494146409
2022-10-24T15:37:18.578Z,25.359053932514872
2022-10-24T15:41:16.384Z,25.26076926005417
2022-10-24T15:44:20.364Z,25.201670031131744
2022-10-24T15:47:17.338Z,25.13678940022364
2022-10-24T15:51:18.395Z,24.992895889282227
2022-10-24T15:54:19.492Z,24.93700873896387
2022-10-24T15:57:18.684Z,24.817525981325254
2022-10-24T16:01:22.977Z,24.732089482277296
2022-10-24T16:04:18.104Z,24.63765976112709
2022-10-24T16:07:16.741Z,24.583699964589414
2022-10-24T16:11:17.133Z,24.477065222934563
2022-10-24T16:14:18.736Z,24.385205274870167
2022-10-24T16:17:16.566Z,24.297199677581467
2022-10-24T16:21:17.821Z,24.202770408991274
2022-10-24T16:24:18.447Z,24.06851399901434
2022-10-24T16:27:16.198Z,23.972157846352
2022-10-24T16:31:18.800Z,23.910489962344673
2022-10-24T16:34:17.588Z,23.80257126617662
2022-10-24T16:37:18.779Z,23.57195972061163
2022-10-24T16:41:17.494Z,23.467895649618367
2022-10-24T16:44:16.415Z,23.37603672315754
2022-10-24T16:47:18.187Z,23.258483127738874
2022-10-24T16:51:19.187Z,23.084401307166353
2022-10-24T16:54:16.236Z,22.98483436435381
2022-10-24T16:57:16.419Z,22.89040646146541
2022-10-24T17:01:16.984Z,22.843513729880577
2022-10-24T17:04:17.857Z,22.68163763720404
2022-10-24T17:07:16.783Z,22.578859315548108
2022-10-24T17:11:43.193Z,22.484431835138185
2022-10-24T17:14:17.370Z,22.389362090187298
2022-10-24T17:17:16.435Z,22.316775122250327
2022-10-24T17:21:17.730Z,22.21463957543465
2022-10-24T17:24:20.567Z,22.070750698259598
2022-10-24T17:27:17.772Z,21.97760846638739
2022-10-24T17:31:16.505Z,21.87547330134121
2022-10-24T17:34:17.136Z,21.69946706026758
2022-10-24T17:37:23.929Z,21.605682852259726
2022-10-24T17:41:20.534Z,21.54722836068977
2022-10-24T17:44:17.551Z,21.35130973499481
2022-10-24T17:47:16.627Z,21.40141347442195
2022-10-24T17:51:22.409Z,21.305060153926114
2022-10-24T17:54:17.432Z,21.204852809149543
2022-10-24T17:57:16.882Z,21.022424337400388
2022-10-24T18:01:19.207Z,21.037198460547735
2022-10-24T18:04:18.886Z,20.875325590320063
2022-10-24T18:07:19.046Z,20.852200918147354
2022-10-24T18:11:15.683Z,20.71987651850941
2022-10-24T18:14:16.053Z,20.637655629533402
2022-10-24T18:17:16.210Z,20.47385642434101
2022-10-24T18:24:16.477Z,20.383285226073347
2022-10-24T18:27:16.765Z,20.264450812283847
2022-10-24T18:31:18.518Z,20.23875690544164
2022-10-24T18:34:17.905Z,20.129557882534662
2022-10-24T18:37:17.049Z,20.058899761273004
2022-10-24T18:41:30.537Z,20.10129462742707
2022-10-24T18:44:23.839Z,19.92464948246816
2022-10-24T18:47:21.901Z,19.7903994023015
2022-10-24T18:51:29.041Z,19.835363521860653
2022-10-24T18:57:21.932Z,19.587418797061492
2022-10-24T19:01:25.730Z,19.627244069877726
2022-10-24T19:04:19.765Z,19.63816390580032
2022-10-24T19:07:16.173Z,19.598980971239598
2022-10-24T19:11:16.943Z,19.433256615476513
2022-10-24T19:14:18.935Z,19.378657572310477
2022-10-24T19:17:17.021Z,19.3728764990753
2022-10-24T19:21:16.223Z,19.351036892399954
2022-10-24T19:24:17.439Z,19.24505064054538
2022-10-24T19:27:16.566Z,19.128144736640753
2022-10-24T19:31:18.291Z,19.09088904067321
2022-10-24T19:34:18.605Z,19.02408576207381
2022-10-24T19:37:19.618Z,18.957924871170054
2022-10-24T19:41:16.514Z,18.915530539253176
2022-10-24T19:44:18.650Z,18.84037699953806
2022-10-24T19:47:16.584Z,18.845515701125624
2022-10-24T19:51:18.153Z,18.7755009170266
2022-10-24T19:54:16.564Z,18.771004556591286
2022-10-24T19:57:16.904Z,18.760727162147305
2022-10-24T20:01:18.579Z,18.73824536585971
2022-10-24T20:04:17.642Z,18.64189487343765
2022-10-24T20:07:17.646Z,18.584084627097127
2022-10-24T20:11:16.604Z,18.61298974566307
2022-10-24T20:14:17.555Z,18.466537239798345
2022-10-24T20:17:16.104Z,18.44662485594099
2022-10-24T20:21:18.671Z,18.387530065061675
2022-10-24T20:24:17.140Z,18.350917007414683
2022-10-24T20:27:20.978Z,18.194187594304093
2022-10-24T20:41:16.083Z,18.129311973843233
2022-10-24T20:44:17.939Z,17.986071906810686
2022-10-24T20:47:16.321Z,17.997633876925466
2022-10-24T20:51:17.576Z,17.97001361742887
2022-10-24T20:54:17.870Z,17.914773123660506
2022-10-24T20:57:16.016Z,17.974509938169284
2022-10-24T21:01:17.970Z,17.916057785924295
2022-10-24T21:04:20.715Z,17.813927192712434
2022-10-24T21:07:16.457Z,17.819708166617147
2022-10-24T21:11:18.346Z,17.804292237023127
2022-10-24T21:14:18.280Z,17.767037084651474
2022-10-24T21:17:16.118Z,17.731066607221965
2022-10-24T21:21:17.164Z,17.70473108814658
2022-10-24T21:24:18.996Z,17.656556377912146
2022-10-24T21:27:16.888Z,17.574338264859488
2022-10-24T21:31:18.516Z,17.629578551354008
2022-10-24T21:34:17.585Z,17.545433477190453
2022-10-24T21:37:17.338Z,17.488908585693935
2022-10-24T21:41:17.751Z,17.499828164261363
2022-10-24T21:44:16.838Z,17.50560911815264
2022-10-24T21:47:17.018Z,17.42467579719414
2022-10-24T21:51:18.794Z,17.416325538029287
2022-10-24T21:54:18.570Z,17.396413384660626
2022-10-24T21:57:16.816Z,17.338603931899705
2022-10-24T22:01:19.410Z,17.318049468683604
2022-10-24T22:04:17.995Z,17.273086596632858
2022-10-24T22:07:16.727Z,17.230050725683487
2022-10-24T22:11:17.545Z,17.2306930519655
2022-10-24T22:14:17.631Z,17.153613930592837
2022-10-24T22:17:15.774Z,17.14140974238044
2022-10-24T22:21:26.876Z,17.091950680642913
2022-10-24T22:24:18.818Z,17.0649730219684
2022-10-24T22:27:17.435Z,17.043133970821508
2022-10-24T22:31:16.691Z,16.945500629977325
2022-10-24T22:34:19.882Z,16.8947570272162
2022-10-24T22:37:26.789Z,16.86713710346412
2022-10-24T22:41:16.408Z,16.806116371494955
2022-10-24T22:44:19.600Z,16.82988233590877
2022-10-24T22:47:37.245Z,16.75794213840418
2022-10-24T22:51:19.978Z,16.802262431906364
2022-10-24T22:54:21.230Z,16.696279157373645
2022-10-24T22:57:16.926Z,16.606354051828383
2022-10-24T23:01:37.682Z,16.673797872631347
2022-10-24T23:04:27.749Z,16.666090004859235
2022-10-24T23:07:26.527Z,16.610207983095098
2022-10-24T23:11:16.713Z,16.628192997837687
2022-10-24T23:17:22.225Z,16.491378510999585
2022-10-24T23:21:25.382Z,16.518355999116558
2022-10-24T23:24:17.397Z,16.443846765739817
2022-10-24T23:27:30.839Z,16.422007864104764
2022-10-24T23:31:16.483Z,16.41751162030305
2022-10-24T23:34:17.245Z,16.380257037375124
2022-10-24T23:37:25.909Z,16.353921910396547
2022-10-24T23:41:16.573Z,16.314098074363663
2022-10-24T23:44:16.898Z,16.27555889484656
2022-10-24T23:47:36.063Z,16.2261003051186
2022-10-24T23:51:22.982Z,16.228669581843132
2022-10-24T23:54:23.683Z,16.1458104441409
2022-10-24T23:57:18.568Z,16.149022037215765
